ExpreSS Skopelitis — SW3130 — position and weather

sailwx.info

Track history (hours):
 
Tides and Currents Weather Stations Pressure Air Temp Water Temp Dewpoint Dewpoint Depression Visibility Wind Speed Wind Dir Waves Ship Positions

ExpreSS Skopelitis

Last reported at 2016-Feb-05 15:30 UTC. Time now 2016-Feb-07 17:20 UTC.
Position N 36°50' E 025°50'.

Length 45 m; draft 2.4 m.

Type: Passenger vessel. MMSI: 237029400.

Date/timePositionNaut miles runAvg speedWind from/ knotsBaromVisibWave heightAir tempDewpointWater temp
2016-Feb-05 15:30N 36°50' E 025°50'1410.7
2016-Feb-05 14:13N 36°55' E 025°34'13 7.5
2016-Feb-05 12:33N 37°02' E 025°21'5 4.7
2016-Feb-05 11:33N 37°06' E 025°22'0 0.0
2016-Feb-05 10:33N 37°06' E 025°22'0 0.0
2016-Feb-05 09:33N 37°06' E 025°22'4 3.5
2016-Feb-05 08:33N 37°03' E 025°20'1410.4
2016-Feb-05 07:15N 36°52' E 025°30'6 7.1
2016-Feb-05 06:23N 36°56' E 025°36'911.2
2016-Feb-05 05:33N 36°52' E 025°46'1 0.1
2016-Feb-04 15:30N 36°51' E 025°47'1110.1
2016-Feb-04 14:22N 36°55' E 025°33'12 6.8
2016-Feb-04 12:33N 37°02' E 025°21'5 4.6
2016-Feb-04 11:33N 37°06' E 025°22'0 0.0
2016-Feb-04 10:33N 37°06' E 025°22'0 0.0
2016-Feb-04 09:33N 37°06' E 025°22'3 2.7
2016-Feb-04 08:33N 37°05' E 025°20'16 7.5
2016-Feb-04 06:28N 36°56' E 025°36'1010.8
2016-Feb-04 05:31N 36°51' E 025°48'3 0.2
2016-Feb-03 18:03N 36°50' E 025°51'710.8
2016-Feb-03 17:23N 36°54' E 025°58'8 9.4
2016-Feb-03 16:31N 37°01' E 025°52'7 6.2
2016-Feb-03 15:28N 37°03' E 025°44'1010.6
2016-Feb-03 14:32N 36°56' E 025°36'13 6.8
2016-Feb-03 12:34N 37°02' E 025°21'5 4.7
2016-Feb-03 11:33N 37°06' E 025°22'0 0.0
2016-Feb-03 10:33N 37°06' E 025°22'3 2.7
2016-Feb-03 09:33N 37°04' E 025°20'1412.3
2016-Feb-03 08:25N 36°52' E 025°29'6 7.2
2016-Feb-03 07:33N 36°56' E 025°35'1110.6
2016-Feb-03 06:31N 37°03' E 025°45'8 7.9
2016-Feb-03 05:31N 36°59' E 025°53'8 6.9
2016-Feb-03 04:24N 36°52' E 025°52'3 0.2
2016-Feb-02 15:33N 36°50' E 025°50'1311.3
2016-Feb-02 14:26N 36°56' E 025°35'13 7.1
2016-Feb-02 12:33N 37°02' E 025°21'5 4.7
2016-Feb-02 11:33N 37°06' E 025°22'0 0.0
2016-Feb-02 10:33N 37°06' E 025°22'0 0.0
2016-Feb-02 09:33N 37°06' E 025°22'3 2.6
2016-Feb-02 08:33N 37°05' E 025°20'15 7.1
2016-Feb-02 06:26N 36°55' E 025°35'1010.4
2016-Feb-02 05:27N 36°52' E 025°47'4 0.4
2016-Feb-01 17:33N 36°52' E 025°52'6 6.0
2016-Feb-01 16:30N 36°58' E 025°54'9 7.2
2016-Feb-01 15:17N 37°02' E 025°44'912.2
2016-Feb-01 14:34N 36°56' E 025°37'14 6.9
2016-Feb-01 12:34N 37°01' E 025°21'5 5.0
2016-Feb-01 11:33N 37°06' E 025°22'0 0.0
2016-Feb-01 10:34N 37°06' E 025°22'3 2.9
2016-Feb-01 09:33N 37°04' E 025°20'15 7.3
2016-Feb-01 07:28N 36°56' E 025°36'1011.3
2016-Feb-01 06:33N 37°03' E 025°45'8 7.7
2016-Feb-01 05:30N 36°59' E 025°54'7 7.3
2016-Feb-01 04:33N 36°52' E 025°54'1 0.0
2016-Jan-30 17:33N 36°52' E 025°52'6 5.8
2016-Jan-30 16:30N 36°58' E 025°54'9 8.4
2016-Jan-30 15:28N 37°04' E 025°46'1211.8
2016-Jan-30 14:28N 36°56' E 025°36'13 6.9
2016-Jan-30 12:33N 37°01' E 025°21'5 5.1
2016-Jan-30 11:33N 37°06' E 025°22'0 0.0
2016-Jan-30 10:33N 37°06' E 025°22'4 4.3
2016-Jan-30 09:34N 37°02' E 025°21'1310.2
2016-Jan-30 08:19N 36°52' E 025°31'6 6.9
2016-Jan-30 07:27N 36°56' E 025°37'14 7.2
2016-Jan-30 05:29N 36°59' E 025°54'7 6.6
2016-Jan-30 04:28N 36°52' E 025°53'3 0.3
2016-Jan-29 15:31N 36°50' E 025°50'26 8.7
2016-Jan-29 12:34N 37°02' E 025°21'5 4.8
2016-Jan-29 11:34N 37°06' E 025°22'0 0.0
2016-Jan-29 10:34N 37°06' E 025°22'0 0.0
2016-Jan-29 09:33N 37°06' E 025°22'3 2.6
2016-Jan-29 08:33N 37°05' E 025°20'15 7.2
2016-Jan-29 06:28N 36°55' E 025°35'1010.5
2016-Jan-29 05:28N 36°52' E 025°47'2 0.1
2016-Jan-28 15:28N 36°51' E 025°49'25 8.6
2016-Jan-28 12:33N 37°02' E 025°21'5 4.8
2016-Jan-28 11:33N 37°06' E 025°22'0 0.0
2016-Jan-28 10:33N 37°06' E 025°22'0 0.0
2016-Jan-28 09:33N 37°06' E 025°22'2 2.0
2016-Jan-28 08:33N 37°05' E 025°20'17 7.1
2016-Jan-28 06:13N 36°55' E 025°37'812.0
2016-Jan-28 05:33N 36°52' E 025°46'9 0.7
2016-Jan-27 17:27N 36°53' E 025°57'13 7.1
2016-Jan-27 15:33N 37°03' E 025°45'1110.0
2016-Jan-27 14:27N 36°55' E 025°35'13 6.9
2016-Jan-27 12:33N 37°02' E 025°21'5 4.7
2016-Jan-27 11:34N 37°06' E 025°22'0 0.0
2016-Jan-27 10:34N 37°06' E 025°22'4 4.4
2016-Jan-27 09:33N 37°02' E 025°21'15 6.9
2016-Jan-27 07:23N 36°57' E 025°38'  
Track history (hours):
 
Tides and Currents Weather Stations Pressure Air Temp Water Temp Dewpoint Dewpoint Depression Visibility Wind Speed Wind Dir Waves Ship Positions

ExpreSS Skopelitis

Last reported at 2016-Feb-05 15:30 UTC. Time now 2016-Feb-07 17:20 UTC.
Position N 36°50' E 025°50'.

Length 45 m; draft 2.4 m.

Type: Passenger vessel. MMSI: 237029400.

Date/timePositionNaut miles runAvg speedWind from/ knotsBaromVisibWave heightAir tempDewpointWater temp
2016-Feb-05 15:30N 36°50' E 025°50'1410.7
2016-Feb-05 14:13N 36°55' E 025°34'13 7.5
2016-Feb-05 12:33N 37°02' E 025°21'5 4.7
2016-Feb-05 11:33N 37°06' E 025°22'0 0.0
2016-Feb-05 10:33N 37°06' E 025°22'0 0.0
2016-Feb-05 09:33N 37°06' E 025°22'4 3.5
2016-Feb-05 08:33N 37°03' E 025°20'1410.4
2016-Feb-05 07:15N 36°52' E 025°30'6 7.1
2016-Feb-05 06:23N 36°56' E 025°36'911.2
2016-Feb-05 05:33N 36°52' E 025°46'1 0.1
2016-Feb-04 15:30N 36°51' E 025°47'1110.1
2016-Feb-04 14:22N 36°55' E 025°33'12 6.8
2016-Feb-04 12:33N 37°02' E 025°21'5 4.6
2016-Feb-04 11:33N 37°06' E 025°22'0 0.0
2016-Feb-04 10:33N 37°06' E 025°22'0 0.0
2016-Feb-04 09:33N 37°06' E 025°22'3 2.7
2016-Feb-04 08:33N 37°05' E 025°20'16 7.5
2016-Feb-04 06:28N 36°56' E 025°36'1010.8
2016-Feb-04 05:31N 36°51' E 025°48'3 0.2
2016-Feb-03 18:03N 36°50' E 025°51'710.8
2016-Feb-03 17:23N 36°54' E 025°58'8 9.4
2016-Feb-03 16:31N 37°01' E 025°52'7 6.2
2016-Feb-03 15:28N 37°03' E 025°44'1010.6
2016-Feb-03 14:32N 36°56' E 025°36'13 6.8
2016-Feb-03 12:34N 37°02' E 025°21'5 4.7
2016-Feb-03 11:33N 37°06' E 025°22'0 0.0
2016-Feb-03 10:33N 37°06' E 025°22'3 2.7
2016-Feb-03 09:33N 37°04' E 025°20'1412.3
2016-Feb-03 08:25N 36°52' E 025°29'6 7.2
2016-Feb-03 07:33N 36°56' E 025°35'1110.6
2016-Feb-03 06:31N 37°03' E 025°45'8 7.9
2016-Feb-03 05:31N 36°59' E 025°53'8 6.9
2016-Feb-03 04:24N 36°52' E 025°52'3 0.2
2016-Feb-02 15:33N 36°50' E 025°50'1311.3
2016-Feb-02 14:26N 36°56' E 025°35'13 7.1
2016-Feb-02 12:33N 37°02' E 025°21'5 4.7
2016-Feb-02 11:33N 37°06' E 025°22'0 0.0
2016-Feb-02 10:33N 37°06' E 025°22'0 0.0
2016-Feb-02 09:33N 37°06' E 025°22'3 2.6
2016-Feb-02 08:33N 37°05' E 025°20'15 7.1
2016-Feb-02 06:26N 36°55' E 025°35'1010.4
2016-Feb-02 05:27N 36°52' E 025°47'4 0.4
2016-Feb-01 17:33N 36°52' E 025°52'6 6.0
2016-Feb-01 16:30N 36°58' E 025°54'9 7.2
2016-Feb-01 15:17N 37°02' E 025°44'912.2
2016-Feb-01 14:34N 36°56' E 025°37'14 6.9
2016-Feb-01 12:34N 37°01' E 025°21'5 5.0
2016-Feb-01 11:33N 37°06' E 025°22'0 0.0
2016-Feb-01 10:34N 37°06' E 025°22'3 2.9
2016-Feb-01 09:33N 37°04' E 025°20'15 7.3
2016-Feb-01 07:28N 36°56' E 025°36'1011.3
2016-Feb-01 06:33N 37°03' E 025°45'8 7.7
2016-Feb-01 05:30N 36°59' E 025°54'7 7.3
2016-Feb-01 04:33N 36°52' E 025°54'1 0.0
2016-Jan-30 17:33N 36°52' E 025°52'6 5.8
2016-Jan-30 16:30N 36°58' E 025°54'9 8.4
2016-Jan-30 15:28N 37°04' E 025°46'1211.8
2016-Jan-30 14:28N 36°56' E 025°36'13 6.9
2016-Jan-30 12:33N 37°01' E 025°21'5 5.1
2016-Jan-30 11:33N 37°06' E 025°22'0 0.0
2016-Jan-30 10:33N 37°06' E 025°22'4 4.3
2016-Jan-30 09:34N 37°02' E 025°21'1310.2
2016-Jan-30 08:19N 36°52' E 025°31'6 6.9
2016-Jan-30 07:27N 36°56' E 025°37'14 7.2
2016-Jan-30 05:29N 36°59' E 025°54'7 6.6
2016-Jan-30 04:28N 36°52' E 025°53'3 0.3
2016-Jan-29 15:31N 36°50' E 025°50'26 8.7
2016-Jan-29 12:34N 37°02' E 025°21'5 4.8
2016-Jan-29 11:34N 37°06' E 025°22'0 0.0
2016-Jan-29 10:34N 37°06' E 025°22'0 0.0
2016-Jan-29 09:33N 37°06' E 025°22'3 2.6
2016-Jan-29 08:33N 37°05' E 025°20'15 7.2
2016-Jan-29 06:28N 36°55' E 025°35'1010.5
2016-Jan-29 05:28N 36°52' E 025°47'2 0.1
2016-Jan-28 15:28N 36°51' E 025°49'25 8.6
2016-Jan-28 12:33N 37°02' E 025°21'5 4.8
2016-Jan-28 11:33N 37°06' E 025°22'0 0.0
2016-Jan-28 10:33N 37°06' E 025°22'0 0.0
2016-Jan-28 09:33N 37°06' E 025°22'2 2.0
2016-Jan-28 08:33N 37°05' E 025°20'17 7.1
2016-Jan-28 06:13N 36°55' E 025°37'812.0
2016-Jan-28 05:33N 36°52' E 025°46'9 0.7
2016-Jan-27 17:27N 36°53' E 025°57'13 7.1
2016-Jan-27 15:33N 37°03' E 025°45'1110.0
2016-Jan-27 14:27N 36°55' E 025°35'13 6.9
2016-Jan-27 12:33N 37°02' E 025°21'5 4.7
2016-Jan-27 11:34N 37°06' E 025°22'0 0.0
2016-Jan-27 10:34N 37°06' E 025°22'4 4.4
2016-Jan-27 09:33N 37°02' E 025°21'15 6.9
2016-Jan-27 07:23N 36°57' E 025°38'  

Dump ship's entire track history